createdAt,value
2019-01-24T00:00:31.212Z,44.70
2019-01-24T00:03:00.192Z,32.23
2019-01-24T00:05:29.180Z,41.58
2019-01-24T00:07:58.161Z,43.65
2019-01-24T00:10:27.424Z,43.02
2019-01-24T00:12:56.399Z,45.17
2019-01-24T00:15:25.419Z,40.03
2019-01-24T00:17:54.764Z,43.17
2019-01-24T00:20:23.657Z,42.38
2019-01-24T00:22:52.680Z,41.80
2019-01-24T00:25:21.720Z,43.85
2019-01-24T00:27:50.665Z,48.17
2019-01-24T00:30:19.617Z,41.80
2019-01-24T00:32:48.621Z,47.73
2019-01-24T00:35:17.862Z,40.43
2019-01-24T00:37:46.696Z,42.65
2019-01-24T00:40:17.544Z,43.00
2019-01-24T00:42:46.399Z,43.95
2019-01-24T00:45:15.952Z,45.15
2019-01-24T00:47:45.258Z,49.30
2019-01-24T00:50:16.073Z,44.88
2019-01-24T00:52:45.337Z,44.30
2019-01-24T00:55:14.657Z,50.15
2019-01-24T00:57:44.521Z,49.42
2019-01-24T01:00:17.580Z,47.40
2019-01-24T01:02:46.867Z,44.27
2019-01-24T01:05:16.156Z,47.05
2019-01-24T01:07:45.476Z,45.50
2019-01-24T01:10:15.360Z,45.78
2019-01-24T01:12:44.353Z,45.33
2019-01-24T01:15:15.545Z,46.83
2019-01-24T01:17:45.103Z,44.20
2019-01-24T01:20:16.588Z,44.77
2019-01-24T01:22:45.524Z,49.20
2019-01-24T01:25:15.377Z,41.80
2019-01-24T01:27:44.564Z,42.80
2019-01-24T01:30:19.596Z,45.12
2019-01-24T01:32:48.897Z,46.73
2019-01-24T01:35:18.185Z,50.90
2019-01-24T01:37:47.856Z,48.20
2019-01-24T01:40:18.216Z,50.10
2019-01-24T01:42:47.263Z,46.63
2019-01-24T01:45:18.451Z,51.98
2019-01-24T01:47:47.860Z,45.88
2019-01-24T01:50:21.968Z,48.28
2019-01-24T01:52:50.972Z,51.98
2019-01-24T01:55:20.078Z,47.15
2019-01-24T01:57:49.092Z,47.03
2019-01-24T02:00:20.399Z,50.90
2019-01-24T02:02:50.169Z,48.60
2019-01-24T02:05:19.304Z,52.70
2019-01-24T02:07:48.904Z,49.30
2019-01-24T02:10:20.255Z,51.73
2019-01-24T02:12:50.066Z,50.45
2019-01-24T02:15:19.585Z,48.75
2019-01-24T02:17:48.833Z,49.00
2019-01-24T02:20:19.751Z,44.42
2019-01-24T02:22:49.008Z,50.12
2019-01-24T02:25:18.042Z,50.08
2019-01-24T02:27:47.211Z,46.45
2019-01-24T02:30:21.856Z,46.73
2019-01-24T02:32:51.117Z,52.67
2019-01-24T02:35:20.284Z,48.25
2019-01-24T02:37:49.269Z,46.55
2019-01-24T02:40:18.448Z,51.85
2019-01-24T02:42:47.392Z,46.58
2019-01-24T02:45:17.943Z,49.80
2019-01-24T02:47:47.240Z,53.65
2019-01-24T02:50:18.212Z,49.53
2019-01-24T02:52:48.030Z,45.83
2019-01-24T02:55:16.907Z,50.50
2019-01-24T02:57:45.945Z,49.20
2019-01-24T03:00:17.198Z,50.08
2019-01-24T03:02:46.292Z,47.03
2019-01-24T03:05:17.456Z,43.60
2019-01-24T03:07:46.463Z,53.07
2019-01-24T03:10:15.845Z,53.50
2019-01-24T03:12:45.681Z,46.02
2019-01-24T03:15:16.612Z,49.93
2019-01-24T03:17:45.643Z,51.37
2019-01-24T03:20:15.528Z,50.00
2019-01-24T03:22:44.465Z,48.50
2019-01-24T03:25:14.116Z,55.05
2019-01-24T03:27:43.289Z,50.50
2019-01-24T03:30:17.950Z,56.08
2019-01-24T03:32:46.940Z,49.42
2019-01-24T03:35:21.365Z,50.73
2019-01-24T03:37:50.336Z,47.13
2019-01-24T03:40:19.456Z,49.95
2019-01-24T03:42:48.468Z,49.27
2019-01-24T03:45:17.752Z,48.58
2019-01-24T03:47:47.392Z,46.10
2019-01-24T03:50:18.148Z,45.23
2019-01-24T03:52:47.634Z,44.98
2019-01-24T03:55:17.952Z,44.83
2019-01-24T03:57:46.945Z,42.43
2019-01-24T04:00:24.018Z,45.55
2019-01-24T04:02:53.701Z,41.23
2019-01-24T04:05:23.040Z,46.20
2019-01-24T04:07:52.795Z,48.33
2019-01-24T04:10:22.907Z,44.95
2019-01-24T04:12:52.143Z,45.73
2019-01-24T04:15:25.817Z,46.05
2019-01-24T04:17:55.356Z,47.55
2019-01-24T04:20:24.870Z,44.73
2019-01-24T04:22:54.759Z,44.40
2019-01-24T04:25:23.861Z,44.73
2019-01-24T04:27:53.146Z,48.23
2019-01-24T04:30:23.631Z,46.92
2019-01-24T04:32:53.110Z,46.55
2019-01-24T04:35:22.987Z,48.73
2019-01-24T04:37:52.530Z,49.70
2019-01-24T04:40:21.930Z,46.88
2019-01-24T04:42:51.269Z,48.68
2019-01-24T04:45:20.782Z,48.35
2019-01-24T04:47:53.180Z,45.75
2019-01-24T04:50:27.578Z,46.23
2019-01-24T04:52:56.996Z,44.00
2019-01-24T04:55:26.342Z,47.17
2019-01-24T04:58:06.699Z,46.73
2019-01-24T05:00:39.101Z,50.60
2019-01-24T05:03:08.441Z,49.10
2019-01-24T05:05:37.774Z,44.73
2019-01-24T05:08:07.219Z,49.67
2019-01-24T05:11:03.186Z,45.80
2019-01-24T05:13:32.863Z,44.55
2019-01-24T05:22:30.444Z,46.65
2019-01-24T05:25:01.016Z,43.95
2019-01-24T05:27:30.857Z,41.95
2019-01-24T05:30:00.050Z,42.48
2019-01-24T05:32:29.186Z,42.08
2019-01-24T05:34:58.397Z,39.85
2019-01-24T05:37:29.226Z,48.45
2019-01-24T05:39:58.406Z,43.92
2019-01-24T05:42:27.520Z,46.05
2019-01-24T05:44:56.823Z,48.25
2019-01-24T05:47:26.100Z,45.70
2019-01-24T05:49:55.556Z,45.55
2019-01-24T05:52:25.170Z,43.58
2019-01-24T05:54:54.489Z,42.38
2019-01-24T05:57:23.582Z,45.48
2019-01-24T05:59:52.670Z,45.55
2019-01-24T06:02:21.910Z,46.60
2019-01-24T06:04:52.901Z,46.83
2019-01-24T06:07:22.292Z,48.38
2019-01-24T06:09:51.544Z,45.58
2019-01-24T06:12:20.814Z,48.35
2019-01-24T06:14:50.230Z,46.55
2019-01-24T06:17:19.905Z,44.13
2019-01-24T06:19:49.120Z,50.35
2019-01-24T06:22:19.608Z,49.15
2019-01-24T06:24:48.913Z,52.53
2019-01-24T06:27:18.131Z,55.80
2019-01-24T06:29:47.432Z,47.27
2019-01-24T06:32:16.704Z,47.70
2019-01-24T06:34:45.930Z,52.90
2019-01-24T06:37:15.351Z,52.38
2019-01-24T06:39:44.587Z,45.25
2019-01-24T06:42:13.918Z,50.45
2019-01-24T06:44:43.284Z,48.38
2019-01-24T06:47:12.723Z,47.90
2019-01-24T06:49:42.291Z,48.73
2019-01-24T06:52:11.927Z,56.37
2019-01-24T06:54:41.118Z,50.28
2019-01-24T06:57:10.439Z,50.98
2019-01-24T06:59:41.775Z,51.77
2019-01-24T07:02:17.375Z,48.90
2019-01-24T07:04:46.473Z,56.15
2019-01-24T07:07:15.810Z,53.60
2019-01-24T07:09:45.135Z,58.25
2019-01-24T07:12:14.255Z,55.92
2019-01-24T07:14:43.807Z,59.20
2019-01-24T07:17:18.387Z,58.30
2019-01-24T07:19:47.609Z,54.05
2019-01-24T07:22:16.778Z,53.38
2019-01-24T07:24:46.009Z,60.25
2019-01-24T07:27:15.357Z,59.27
2019-01-24T07:29:44.583Z,58.48
2019-01-24T07:32:13.843Z,62.48
2019-01-24T07:34:42.901Z,58.65
2019-01-24T07:37:12.517Z,60.48
2019-01-24T07:39:41.621Z,58.80
2019-01-24T07:42:11.124Z,59.18
2019-01-24T07:44:40.155Z,60.38
2019-01-24T07:47:09.541Z,62.75
2019-01-24T07:49:38.701Z,62.27
2019-01-24T07:52:07.854Z,63.42
2019-01-24T07:54:37.058Z,65.03
2019-01-24T07:57:06.277Z,62.88
2019-01-24T07:59:35.430Z,65.75
2019-01-24T08:02:04.768Z,60.73
2019-01-24T08:04:34.081Z,65.85
2019-01-24T08:07:03.173Z,64.97
2019-01-24T08:09:32.475Z,61.53
2019-01-24T08:12:01.671Z,62.45
2019-01-24T08:14:30.865Z,62.88
2019-01-24T08:17:00.644Z,63.78
2019-01-24T08:19:30.718Z,62.85
2019-01-24T08:22:00.315Z,61.85
2019-01-24T08:24:29.737Z,64.45
2019-01-24T08:26:59.014Z,60.25
2019-01-24T08:29:28.225Z,73.40
2019-01-24T08:31:57.313Z,68.07
2019-01-24T08:34:26.449Z,63.25
2019-01-24T08:36:55.861Z,72.85
2019-01-24T08:39:28.329Z,70.72
2019-01-24T08:42:02.320Z,72.12
2019-01-24T08:44:31.720Z,65.05
2019-01-24T08:47:01.194Z,71.60
2019-01-24T08:49:30.395Z,66.37
2019-01-24T08:52:00.046Z,66.85
2019-01-24T08:54:29.242Z,64.82
2019-01-24T08:56:58.388Z,72.20
2019-01-24T08:59:29.761Z,65.90
2019-01-24T09:01:58.275Z,65.05
2019-01-24T09:04:27.386Z,73.47
2019-01-24T09:06:56.496Z,74.10
2019-01-24T09:09:25.430Z,69.53
2019-01-24T09:11:54.586Z,76.17
2019-01-24T09:14:23.759Z,73.33
2019-01-24T09:16:53.184Z,74.27
2019-01-24T09:19:27.290Z,66.77
2019-01-24T09:21:56.373Z,71.97
2019-01-24T09:24:25.527Z,74.95
2019-01-24T09:26:54.493Z,72.20
2019-01-24T09:29:23.654Z,76.77
2019-01-24T09:31:52.649Z,73.45
2019-01-24T09:34:21.736Z,71.85
2019-01-24T09:36:50.825Z,69.62
2019-01-24T09:39:19.883Z,73.30
2019-01-24T09:41:48.990Z,68.22
2019-01-24T09:44:18.457Z,82.70
2019-01-24T09:46:47.500Z,70.25
2019-01-24T09:49:16.621Z,72.78
2019-01-24T09:51:45.741Z,66.30
2019-01-24T09:54:14.808Z,78.70
2019-01-24T09:56:43.765Z,72.97
2019-01-24T09:59:13.001Z,71.97
2019-01-24T10:01:42.001Z,81.25
2019-01-24T10:04:11.082Z,79.17
2019-01-24T10:06:40.243Z,71.50
2019-01-24T10:09:10.016Z,75.25
2019-01-24T10:11:39.431Z,71.15
2019-01-24T10:14:08.564Z,66.40
2019-01-24T10:16:37.586Z,69.87
2019-01-24T10:19:06.783Z,70.75
2019-01-24T10:21:35.949Z,72.85
2019-01-24T10:24:05.138Z,73.42
2019-01-24T10:26:34.196Z,72.45
2019-01-24T10:29:03.378Z,73.22
2019-01-24T10:31:32.954Z,71.80
2019-01-24T10:34:02.068Z,82.90
2019-01-24T10:36:31.255Z,71.10
2019-01-24T10:39:00.456Z,77.35
2019-01-24T10:41:30.702Z,73.37
2019-01-24T10:43:59.790Z,62.43
2019-01-24T10:46:29.018Z,71.07
2019-01-24T10:48:58.039Z,74.67
2019-01-24T10:51:27.149Z,75.65
2019-01-24T10:53:56.375Z,72.00
2019-01-24T10:56:25.424Z,67.50
2019-01-24T10:58:54.784Z,76.12
2019-01-24T11:01:24.182Z,65.65
2019-01-24T11:03:53.280Z,68.62
2019-01-24T11:06:22.421Z,71.37
2019-01-24T11:08:51.429Z,76.53
2019-01-24T11:11:20.481Z,62.17
2019-01-24T11:13:49.667Z,60.20
2019-01-24T11:16:18.842Z,71.70
2019-01-24T11:18:48.003Z,65.52
2019-01-24T11:21:17.206Z,66.53
2019-01-24T11:23:46.351Z,63.35
2019-01-24T11:26:15.602Z,69.65
2019-01-24T11:28:44.778Z,70.22
2019-01-24T11:31:13.897Z,63.90
2019-01-24T11:33:43.006Z,66.17
2019-01-24T11:36:12.180Z,65.85
2019-01-24T11:38:41.305Z,63.02
2019-01-24T11:41:10.458Z,62.58
2019-01-24T11:43:39.628Z,67.10
2019-01-24T11:46:08.720Z,66.82
2019-01-24T11:48:37.804Z,60.33
2019-01-24T11:51:07.056Z,62.88
2019-01-24T11:53:36.436Z,56.42
2019-01-24T11:56:06.335Z,58.13
2019-01-24T11:58:36.679Z,64.60
2019-01-24T12:01:05.852Z,56.50
2019-01-24T12:03:35.146Z,60.43
2019-01-24T12:06:04.480Z,59.27
2019-01-24T12:08:33.645Z,59.40
2019-01-24T12:11:02.821Z,64.80
2019-01-24T12:13:31.933Z,58.35
2019-01-24T12:16:01.121Z,64.75
2019-01-24T12:18:30.407Z,60.38
2019-01-24T12:20:59.613Z,57.70
2019-01-24T12:23:28.793Z,59.15
2019-01-24T12:25:57.969Z,59.60
2019-01-24T12:28:27.125Z,62.17
2019-01-24T12:30:56.215Z,56.02
2019-01-24T12:33:25.433Z,54.25
2019-01-24T12:35:54.487Z,55.15
2019-01-24T12:38:23.979Z,54.90
2019-01-24T12:40:53.122Z,56.02
2019-01-24T12:43:22.652Z,53.38
2019-01-24T12:45:51.767Z,54.18
2019-01-24T12:48:20.969Z,57.73
2019-01-24T12:50:50.201Z,49.58
2019-01-24T12:53:29.888Z,56.92
2019-01-24T12:55:59.190Z,62.85
2019-01-24T12:58:28.347Z,56.68
2019-01-24T13:00:57.499Z,55.48
2019-01-24T13:03:26.790Z,55.95
2019-01-24T13:05:56.353Z,58.63
2019-01-24T13:08:25.900Z,61.58
2019-01-24T13:10:55.109Z,58.75
2019-01-24T13:13:24.142Z,60.05
2019-01-24T13:15:53.281Z,58.20
2019-01-24T13:18:22.417Z,55.33
2019-01-24T13:20:51.636Z,63.02
2019-01-24T13:23:20.965Z,62.95
2019-01-24T13:25:50.097Z,54.85
2019-01-24T13:28:19.292Z,54.25
2019-01-24T13:30:48.421Z,55.83
2019-01-24T13:33:17.568Z,58.90
2019-01-24T13:35:46.712Z,55.98
2019-01-24T13:38:15.705Z,57.48
2019-01-24T13:40:44.829Z,60.45
2019-01-24T13:43:13.955Z,61.00
2019-01-24T13:45:42.933Z,61.88
2019-01-24T13:48:12.294Z,59.58
2019-01-24T13:50:41.360Z,56.40
2019-01-24T13:53:10.430Z,55.20
2019-01-24T13:55:39.670Z,55.75
2019-01-24T13:58:09.277Z,50.50
2019-01-24T14:00:39.875Z,54.67
2019-01-24T14:03:32.386Z,54.40
2019-01-24T14:06:01.560Z,50.43
2019-01-24T14:08:30.585Z,57.75
2019-01-24T14:10:59.698Z,57.70
2019-01-24T14:13:28.938Z,54.63
2019-01-24T14:15:58.400Z,51.65
2019-01-24T14:18:27.934Z,47.55
2019-01-24T14:20:57.198Z,51.42
2019-01-24T14:23:26.753Z,55.90
2019-01-24T14:25:55.784Z,55.40
2019-01-24T14:28:24.965Z,56.08
2019-01-24T14:30:54.199Z,57.05
2019-01-24T14:33:23.339Z,58.05
2019-01-24T14:35:52.507Z,51.20
2019-01-24T14:38:21.603Z,54.65
2019-01-24T14:40:51.019Z,53.00
2019-01-24T14:43:20.334Z,49.60
2019-01-24T14:45:49.792Z,46.50
2019-01-24T14:48:18.777Z,49.27
2019-01-24T14:50:47.836Z,47.35
2019-01-24T14:53:16.945Z,55.30
2019-01-24T14:55:46.061Z,52.05
2019-01-24T14:58:15.089Z,50.20
2019-01-24T15:00:57.461Z,45.88
2019-01-24T15:03:26.716Z,51.70
2019-01-24T15:05:55.978Z,52.65
2019-01-24T15:08:25.247Z,53.17
2019-01-24T15:10:54.365Z,53.50
2019-01-24T15:13:23.477Z,49.27
2019-01-24T15:15:52.529Z,51.10
2019-01-24T15:18:23.871Z,49.03
2019-01-24T15:20:53.005Z,50.45
2019-01-24T15:23:22.142Z,55.83
2019-01-24T15:25:51.237Z,58.63
2019-01-24T15:28:20.782Z,53.90
2019-01-24T15:30:49.913Z,53.05
2019-01-24T15:33:19.044Z,52.65
2019-01-24T15:35:48.186Z,55.08
2019-01-24T15:38:17.494Z,51.92
2019-01-24T15:40:46.678Z,55.75
2019-01-24T15:43:15.721Z,51.98
2019-01-24T15:45:44.983Z,51.92
2019-01-24T15:48:14.012Z,52.05
2019-01-24T15:50:43.151Z,54.58
2019-01-24T15:53:12.213Z,55.28
2019-01-24T15:55:41.299Z,52.98
2019-01-24T15:58:10.710Z,53.13
2019-01-24T16:00:39.935Z,55.17
2019-01-24T16:03:09.078Z,55.08
2019-01-24T16:05:38.265Z,52.38
2019-01-24T16:08:07.435Z,57.25
2019-01-24T16:10:36.718Z,55.55
2019-01-24T16:13:06.226Z,58.68
2019-01-24T16:15:36.739Z,55.98
2019-01-24T16:18:08.689Z,57.58
2019-01-24T16:20:39.210Z,48.33
2019-01-24T16:23:08.359Z,60.23
2019-01-24T16:25:37.817Z,55.65
2019-01-24T16:28:07.482Z,52.30
2019-01-24T16:30:37.094Z,47.15
2019-01-24T16:33:09.768Z,50.58
2019-01-24T16:35:40.168Z,52.67
2019-01-24T16:38:09.843Z,48.23
2019-01-24T16:40:39.386Z,47.10
2019-01-24T16:43:08.604Z,45.75
2019-01-24T16:45:37.689Z,42.10
2019-01-24T16:48:07.022Z,47.88
2019-01-24T16:50:36.198Z,50.90
2019-01-24T16:53:05.761Z,40.10
2019-01-24T16:55:35.003Z,42.98
2019-01-24T16:58:04.421Z,37.28
2019-01-24T17:00:57.725Z,38.45
2019-01-24T17:03:26.886Z,35.45
2019-01-24T17:05:55.965Z,39.20
2019-01-24T17:08:24.939Z,34.48
2019-01-24T17:10:54.065Z,38.40
2019-01-24T17:13:23.108Z,39.40
2019-01-24T17:15:52.344Z,41.13
2019-01-24T17:18:21.485Z,49.33
2019-01-24T17:20:50.659Z,49.00
2019-01-24T17:23:19.904Z,43.08
2019-01-24T17:25:49.164Z,36.98
2019-01-24T17:28:18.505Z,39.55
2019-01-24T17:30:47.640Z,43.87
2019-01-24T17:33:17.171Z,46.23
2019-01-24T17:35:46.431Z,47.58
2019-01-24T17:38:16.283Z,44.83
2019-01-24T17:40:45.624Z,51.28
2019-01-24T17:43:15.047Z,49.67
2019-01-24T17:45:44.123Z,45.85
2019-01-24T17:48:13.715Z,48.55
2019-01-24T17:50:44.256Z,47.40
2019-01-24T17:53:13.341Z,53.73
2019-01-24T17:55:44.532Z,49.50
2019-01-24T17:58:13.605Z,43.98
2019-01-24T18:00:49.397Z,42.95
2019-01-24T18:03:21.133Z,43.08
2019-01-24T18:05:50.497Z,41.08
2019-01-24T18:08:20.478Z,45.03
2019-01-24T18:10:50.108Z,49.70
2019-01-24T18:13:19.837Z,51.53
2019-01-24T18:15:50.943Z,52.78
2019-01-24T18:18:31.522Z,50.30
2019-01-24T18:24:16.880Z,61.58
2019-01-24T18:26:46.027Z,63.15
2019-01-24T18:29:15.371Z,53.45
2019-01-24T18:31:44.659Z,55.05
2019-01-24T18:34:15.631Z,54.73
2019-01-24T18:37:05.153Z,55.98
2019-01-24T18:39:34.431Z,57.50
2019-01-24T18:42:04.935Z,55.52
2019-01-24T18:44:35.358Z,53.65
2019-01-24T18:47:06.183Z,46.75
2019-01-24T18:49:38.586Z,56.40
2019-01-24T18:52:08.062Z,52.35
2019-01-24T18:54:37.285Z,50.00
2019-01-24T18:57:06.510Z,48.98
2019-01-24T18:59:35.581Z,55.28
2019-01-24T19:02:05.044Z,57.38
2019-01-24T19:04:34.118Z,52.40
2019-01-24T19:07:03.646Z,48.08
2019-01-24T19:09:32.648Z,59.05
2019-01-24T19:12:01.711Z,59.55
2019-01-24T19:14:30.800Z,64.87
2019-01-24T19:16:59.876Z,71.60
2019-01-24T19:19:29.213Z,61.60
2019-01-24T19:21:58.945Z,77.82
2019-01-24T19:24:28.040Z,70.05
2019-01-24T19:26:58.562Z,68.72
2019-01-24T19:29:27.624Z,68.20
2019-01-24T19:31:56.702Z,64.85
2019-01-24T19:34:25.798Z,61.45
2019-01-24T19:36:54.915Z,59.65
2019-01-24T19:39:24.060Z,60.55
2019-01-24T19:41:53.265Z,63.98
2019-01-24T19:44:22.875Z,71.37
2019-01-24T19:46:51.965Z,65.97
2019-01-24T19:49:21.100Z,65.45
2019-01-24T19:51:50.277Z,63.55
2019-01-24T19:54:19.373Z,62.58
2019-01-24T19:56:48.949Z,63.25
2019-01-24T19:59:18.097Z,68.35
2019-01-24T20:01:47.523Z,65.32
2019-01-24T20:04:16.904Z,58.42
2019-01-24T20:06:46.107Z,66.12
2019-01-24T20:09:15.548Z,68.85
2019-01-24T20:11:44.810Z,55.52
2019-01-24T20:14:25.866Z,59.03
2019-01-24T20:16:55.301Z,56.20
2019-01-24T20:19:24.642Z,52.08
2019-01-24T20:21:53.600Z,55.85
2019-01-24T20:24:22.732Z,49.65
2019-01-24T20:26:52.073Z,51.58
2019-01-24T20:29:21.285Z,53.60
2019-01-24T20:31:53.594Z,47.20
2019-01-24T20:34:22.944Z,48.92
2019-01-24T20:36:52.276Z,48.25
2019-01-24T20:39:27.998Z,48.73
2019-01-24T20:41:57.315Z,52.30
2019-01-24T20:44:26.719Z,50.17
2019-01-24T20:46:55.948Z,46.55
2019-01-24T20:49:25.091Z,51.35
2019-01-24T20:51:54.493Z,44.40
2019-01-24T20:54:23.594Z,48.05
2019-01-24T20:56:55.709Z,48.73
2019-01-24T20:59:27.798Z,44.77
2019-01-24T21:01:56.930Z,46.73
2019-01-24T21:04:25.920Z,46.30
2019-01-24T21:06:55.069Z,44.77
2019-01-24T21:09:25.533Z,42.70
2019-01-24T21:11:54.789Z,46.15
2019-01-24T21:14:23.896Z,44.03
2019-01-24T21:16:52.927Z,46.35
2019-01-24T21:19:21.994Z,43.35
2019-01-24T21:21:51.101Z,40.15
2019-01-24T21:24:20.354Z,43.83
2019-01-24T21:26:49.526Z,43.00
2019-01-24T21:29:19.141Z,46.83
2019-01-24T21:31:48.297Z,42.53
2019-01-24T21:34:17.510Z,52.00
2019-01-24T21:36:46.941Z,46.98
2019-01-24T21:39:22.230Z,53.65
2019-01-24T21:41:47.019Z,46.77
2019-01-24T21:44:16.180Z,51.02
2019-01-24T21:46:45.306Z,53.70
2019-01-24T21:49:14.769Z,52.88
2019-01-24T21:51:43.869Z,55.67
2019-01-24T21:54:13.975Z,51.95
2019-01-24T21:56:43.121Z,52.15
2019-01-24T21:59:13.477Z,50.98
2019-01-24T22:01:42.433Z,55.85
2019-01-24T22:04:11.925Z,55.67
2019-01-24T22:06:41.001Z,57.88
2019-01-24T22:09:10.144Z,59.23
2019-01-24T22:11:39.105Z,53.20
2019-01-24T22:14:08.249Z,61.18
2019-01-24T22:16:37.449Z,55.92
2019-01-24T22:19:06.536Z,52.90
2019-01-24T22:21:35.689Z,57.08
2019-01-24T22:24:05.486Z,59.60
2019-01-24T22:26:34.645Z,53.17
2019-01-24T22:29:03.708Z,54.85
2019-01-24T22:31:32.847Z,54.10
2019-01-24T22:34:02.226Z,54.15
2019-01-24T22:36:31.363Z,58.78
2019-01-24T22:39:00.480Z,53.70
2019-01-24T22:41:29.609Z,60.48
2019-01-24T22:43:58.721Z,55.40
2019-01-24T22:46:27.735Z,54.95
2019-01-24T22:48:56.753Z,60.20
2019-01-24T22:51:25.838Z,60.45
2019-01-24T22:53:57.049Z,61.08
2019-01-24T22:56:26.165Z,58.83
2019-01-24T22:58:55.324Z,57.95
2019-01-24T23:01:47.397Z,54.40
2019-01-24T23:04:23.125Z,60.48
2019-01-24T23:06:52.412Z,55.52
2019-01-24T23:09:21.592Z,60.08
2019-01-24T23:11:50.652Z,60.48
2019-01-24T23:14:19.760Z,55.70
2019-01-24T23:16:51.021Z,55.00
2019-01-24T23:19:20.343Z,57.58
2019-01-24T23:21:49.695Z,58.78
2019-01-24T23:24:18.846Z,85.25
2019-01-24T23:26:47.936Z,54.15
2019-01-24T23:29:17.081Z,53.25
2019-01-24T23:31:46.172Z,50.28
2019-01-24T23:34:15.220Z,52.43
2019-01-24T23:36:44.385Z,52.08
2019-01-24T23:39:13.869Z,55.58
2019-01-24T23:41:42.997Z,54.25
2019-01-24T23:44:12.286Z,55.80
2019-01-24T23:46:41.343Z,49.05
2019-01-24T23:49:10.518Z,49.18
2019-01-24T23:51:39.997Z,52.55
2019-01-24T23:54:09.100Z,51.73
2019-01-24T23:56:38.456Z,53.25
2019-01-24T23:59:07.553Z,51.55
